sensor_id;sensor_type;location;lat;lon;timestamp;pressure;altitude;pressure_sealevel;temperature;humidity
73003;BME280;61184;54.356;-8.550;2023-03-01T00:01:39;103810.91;;;19.80;30.16
73003;BME280;61184;54.356;-8.550;2023-03-01T00:04:04;103813.26;;;20.17;29.75
73003;BME280;61184;54.356;-8.550;2023-03-01T00:06:30;103817.95;;;19.84;30.11
73003;BME280;61184;54.356;-8.550;2023-03-01T00:08:58;103821.85;;;19.90;30.04
73003;BME280;61184;54.356;-8.550;2023-03-01T00:11:24;103816.37;;;19.99;30.17
73003;BME280;61184;54.356;-8.550;2023-03-01T00:13:48;103817.82;;;19.61;30.35
73003;BME280;61184;54.356;-8.550;2023-03-01T00:16:13;103817.45;;;20.13;30.05
73003;BME280;61184;54.356;-8.550;2023-03-01T00:18:39;103810.53;;;19.72;30.18
73003;BME280;61184;54.356;-8.550;2023-03-01T00:21:07;103807.52;;;19.96;29.93
73003;BME280;61184;54.356;-8.550;2023-03-01T00:23:53;103809.70;;;19.80;30.11
73003;BME280;61184;54.356;-8.550;2023-03-01T00:25:55;103806.20;;;19.60;30.32
73003;BME280;61184;54.356;-8.550;2023-03-01T00:28:20;103800.51;;;19.74;30.11
73003;BME280;61184;54.356;-8.550;2023-03-01T00:30:45;103795.48;;;19.84;30.00
73003;BME280;61184;54.356;-8.550;2023-03-01T00:33:11;103790.90;;;19.85;29.99
73003;BME280;61184;54.356;-8.550;2023-03-01T00:35:36;103787.66;;;19.81;30.02
73003;BME280;61184;54.356;-8.550;2023-03-01T00:38:02;103783.79;;;19.60;30.19
73003;BME280;61184;54.356;-8.550;2023-03-01T00:40:48;103782.56;;;19.96;30.07
73003;BME280;61184;54.356;-8.550;2023-03-01T00:42:52;103780.51;;;19.75;30.01
73003;BME280;61184;54.356;-8.550;2023-03-01T00:45:19;103780.06;;;19.69;30.34
73003;BME280;61184;54.356;-8.550;2023-03-01T00:47:45;103783.38;;;19.71;30.03
73003;BME280;61184;54.356;-8.550;2023-03-01T00:50:10;103783.16;;;19.50;30.03
73003;BME280;61184;54.356;-8.550;2023-03-01T00:52:35;103781.65;;;19.54;30.21
73003;BME280;61184;54.356;-8.550;2023-03-01T00:55:00;103782.79;;;19.67;30.07
73003;BME280;61184;54.356;-8.550;2023-03-01T00:57:25;103778.52;;;19.48;30.24
73003;BME280;61184;54.356;-8.550;2023-03-01T00:59:52;103777.11;;;19.67;30.04
73003;BME280;61184;54.356;-8.550;2023-03-01T01:02:16;103779.82;;;19.64;30.06
73003;BME280;61184;54.356;-8.550;2023-03-01T01:04:42;103779.66;;;19.56;30.15
73003;BME280;61184;54.356;-8.550;2023-03-01T01:07:08;103777.69;;;19.49;30.25
73003;BME280;61184;54.356;-8.550;2023-03-01T01:09:47;103775.56;;;19.38;30.36
73003;BME280;61184;54.356;-8.550;2023-03-01T01:11:58;103777.04;;;19.38;30.31
73003;BME280;61184;54.356;-8.550;2023-03-01T01:14:41;103776.38;;;19.65;30.21
73003;BME280;61184;54.356;-8.550;2023-03-01T01:16:49;103775.00;;;19.69;30.17
73003;BME280;61184;54.356;-8.550;2023-03-01T01:19:24;103771.84;;;19.80;30.01
73003;BME280;61184;54.356;-8.550;2023-03-01T01:21:41;103768.52;;;19.34;30.24
73003;BME280;61184;54.356;-8.550;2023-03-01T01:24:07;103770.84;;;19.23;30.37
73003;BME280;61184;54.356;-8.550;2023-03-01T01:26:33;103770.84;;;19.20;30.37
73003;BME280;61184;54.356;-8.550;2023-03-01T01:28:58;103768.59;;;19.09;30.55
73003;BME280;61184;54.356;-8.550;2023-03-01T01:31:23;103764.94;;;19.35;30.19
73003;BME280;61184;54.356;-8.550;2023-03-01T01:33:48;103756.85;;;19.29;30.25
73003;BME280;61184;54.356;-8.550;2023-03-01T01:36:14;103755.50;;;19.06;30.53
73003;BME280;61184;54.356;-8.550;2023-03-01T01:38:39;103749.50;;;19.25;30.57
73003;BME280;61184;54.356;-8.550;2023-03-01T01:41:06;103744.32;;;19.63;30.39
73003;BME280;61184;54.356;-8.550;2023-03-01T01:43:33;103743.81;;;19.46;30.30
73003;BME280;61184;54.356;-8.550;2023-03-01T01:46:00;103738.10;;;19.35;30.45
73003;BME280;61184;54.356;-8.550;2023-03-01T01:48:23;103738.27;;;19.53;30.49
73003;BME280;61184;54.356;-8.550;2023-03-01T01:50:53;103736.68;;;18.99;30.53
73003;BME280;61184;54.356;-8.550;2023-03-01T01:53:15;103736.63;;;18.98;30.52
73003;BME280;61184;54.356;-8.550;2023-03-01T01:55:42;103734.14;;;19.07;30.44
73003;BME280;61184;54.356;-8.550;2023-03-01T01:58:05;103727.98;;;19.32;30.39
73003;BME280;61184;54.356;-8.550;2023-03-01T02:00:31;103723.53;;;19.21;30.57
73003;BME280;61184;54.356;-8.550;2023-03-01T02:02:57;103723.53;;;19.19;30.52
73003;BME280;61184;54.356;-8.550;2023-03-01T02:05:24;103720.38;;;19.35;30.35
73003;BME280;61184;54.356;-8.550;2023-03-01T02:07:47;103712.91;;;18.96;30.53
73003;BME280;61184;54.356;-8.550;2023-03-01T02:10:12;103711.63;;;19.32;30.36
73003;BME280;61184;54.356;-8.550;2023-03-01T02:12:38;103708.54;;;19.40;30.27
73003;BME280;61184;54.356;-8.550;2023-03-01T02:15:02;103710.16;;;19.18;30.49
73003;BME280;61184;54.356;-8.550;2023-03-01T02:18:02;103700.56;;;19.65;30.25
73003;BME280;61184;54.356;-8.550;2023-03-01T02:20:04;103700.26;;;18.88;30.60
73003;BME280;61184;54.356;-8.550;2023-03-01T02:22:25;103691.70;;;19.40;30.23
73003;BME280;61184;54.356;-8.550;2023-03-01T02:24:50;103694.88;;;18.81;30.60
73003;BME280;61184;54.356;-8.550;2023-03-01T02:27:10;103688.38;;;19.13;30.60
73003;BME280;61184;54.356;-8.550;2023-03-01T02:29:40;103679.23;;;19.45;30.41
73003;BME280;61184;54.356;-8.550;2023-03-01T02:32:03;103683.05;;;19.32;30.58
73003;BME280;61184;54.356;-8.550;2023-03-01T02:34:26;103674.29;;;19.15;30.50
73003;BME280;61184;54.356;-8.550;2023-03-01T02:37:04;103676.92;;;19.22;30.37
73003;BME280;61184;54.356;-8.550;2023-03-01T02:39:26;103673.28;;;19.53;30.33
73003;BME280;61184;54.356;-8.550;2023-03-01T02:41:48;103677.42;;;19.22;30.44
73003;BME280;61184;54.356;-8.550;2023-03-01T02:44:10;103674.40;;;18.93;30.45
73003;BME280;61184;54.356;-8.550;2023-03-01T02:46:33;103678.31;;;18.86;30.52
73003;BME280;61184;54.356;-8.550;2023-03-01T02:49:00;103674.84;;;19.70;30.08
73003;BME280;61184;54.356;-8.550;2023-03-01T02:51:45;103672.11;;;19.16;30.16
73003;BME280;61184;54.356;-8.550;2023-03-01T02:54:01;103668.72;;;19.50;30.32
73003;BME280;61184;54.356;-8.550;2023-03-01T02:56:29;103665.85;;;19.31;30.25
73003;BME280;61184;54.356;-8.550;2023-03-01T02:58:41;103662.69;;;19.10;30.45
73003;BME280;61184;54.356;-8.550;2023-03-01T03:01:09;103657.28;;;19.23;30.34
73003;BME280;61184;54.356;-8.550;2023-03-01T03:03:32;103654.75;;;19.22;30.31
73003;BME280;61184;54.356;-8.550;2023-03-01T03:06:01;103653.88;;;18.88;30.46
73003;BME280;61184;54.356;-8.550;2023-03-01T03:08:37;103645.61;;;19.23;30.29
73003;BME280;61184;54.356;-8.550;2023-03-01T03:10:49;103646.06;;;18.93;30.37
73003;BME280;61184;54.356;-8.550;2023-03-01T03:13:15;103643.38;;;19.06;30.53
73003;BME280;61184;54.356;-8.550;2023-03-01T03:15:54;103636.55;;;19.10;30.46
73003;BME280;61184;54.356;-8.550;2023-03-01T03:18:08;103634.25;;;19.02;30.54
73003;BME280;61184;54.356;-8.550;2023-03-01T03:20:45;103631.48;;;19.17;30.37
73003;BME280;61184;54.356;-8.550;2023-03-01T03:23:02;103625.88;;;19.09;30.44
73003;BME280;61184;54.356;-8.550;2023-03-01T03:25:50;103619.32;;;19.40;30.37
73003;BME280;61184;54.356;-8.550;2023-03-01T03:27:49;103620.94;;;19.07;30.20
73003;BME280;61184;54.356;-8.550;2023-03-01T03:30:15;103616.21;;;19.02;30.54
73003;BME280;61184;54.356;-8.550;2023-03-01T03:32:40;103617.38;;;18.93;30.73
73003;BME280;61184;54.356;-8.550;2023-03-01T03:35:05;103614.74;;;18.90;30.75
73003;BME280;61184;54.356;-8.550;2023-03-01T03:37:29;103617.52;;;19.29;30.52
73003;BME280;61184;54.356;-8.550;2023-03-01T03:39:55;103614.46;;;19.22;30.59
73003;BME280;61184;54.356;-8.550;2023-03-01T03:42:21;103612.19;;;19.06;30.48
73003;BME280;61184;54.356;-8.550;2023-03-01T03:44:46;103613.32;;;18.95;30.31
73003;BME280;61184;54.356;-8.550;2023-03-01T03:47:11;103612.80;;;18.99;30.53
73003;BME280;61184;54.356;-8.550;2023-03-01T03:49:40;103613.63;;;19.01;30.57
73003;BME280;61184;54.356;-8.550;2023-03-01T03:52:03;103615.82;;;19.07;30.49
73003;BME280;61184;54.356;-8.550;2023-03-01T03:54:28;103617.82;;;19.16;30.64
73003;BME280;61184;54.356;-8.550;2023-03-01T03:56:54;103619.67;;;19.05;30.53
73003;BME280;61184;54.356;-8.550;2023-03-01T03:59:19;103617.80;;;19.30;30.51
73003;BME280;61184;54.356;-8.550;2023-03-01T04:01:46;103613.50;;;19.07;30.42
73003;BME280;61184;54.356;-8.550;2023-03-01T04:04:11;103612.15;;;18.96;30.58
73003;BME280;61184;54.356;-8.550;2023-03-01T04:06:38;103613.81;;;18.90;30.68
73003;BME280;61184;54.356;-8.550;2023-03-01T04:09:02;103614.55;;;19.32;30.44
73003;BME280;61184;54.356;-8.550;2023-03-01T04:11:30;103616.27;;;18.96;30.62
73003;BME280;61184;54.356;-8.550;2023-03-01T04:13:54;103610.13;;;18.86;30.75
73003;BME280;61184;54.356;-8.550;2023-03-01T04:16:18;103610.59;;;19.05;30.50
73003;BME280;61184;54.356;-8.550;2023-03-01T04:18:45;103608.84;;;18.99;30.55
73003;BME280;61184;54.356;-8.550;2023-03-01T04:21:10;103612.04;;;19.16;30.63
73003;BME280;61184;54.356;-8.550;2023-03-01T04:23:34;103607.11;;;18.81;30.77
73003;BME280;61184;54.356;-8.550;2023-03-01T04:26:00;103609.83;;;19.24;30.55
73003;BME280;61184;54.356;-8.550;2023-03-01T04:28:28;103616.63;;;19.35;30.39
73003;BME280;61184;54.356;-8.550;2023-03-01T04:30:52;103616.67;;;18.92;30.58
73003;BME280;61184;54.356;-8.550;2023-03-01T04:33:17;103621.46;;;18.84;30.69
73003;BME280;61184;54.356;-8.550;2023-03-01T04:35:42;103618.67;;;18.76;30.79
73003;BME280;61184;54.356;-8.550;2023-03-01T04:38:08;103621.84;;;19.16;30.58
73003;BME280;61184;54.356;-8.550;2023-03-01T04:40:33;103624.94;;;18.94;30.87
73003;BME280;61184;54.356;-8.550;2023-03-01T04:43:02;103625.86;;;19.11;30.63
73003;BME280;61184;54.356;-8.550;2023-03-01T04:45:24;103622.56;;;19.10;30.62
73003;BME280;61184;54.356;-8.550;2023-03-01T04:47:50;103621.18;;;19.13;30.59
73003;BME280;61184;54.356;-8.550;2023-03-01T04:50:19;103622.77;;;18.70;30.58
73003;BME280;61184;54.356;-8.550;2023-03-01T04:52:51;103620.20;;;19.01;30.72
73003;BME280;61184;54.356;-8.550;2023-03-01T04:55:07;103618.17;;;18.97;30.81
73003;BME280;61184;54.356;-8.550;2023-03-01T04:57:32;103620.96;;;18.65;30.64
73003;BME280;61184;54.356;-8.550;2023-03-01T05:00:01;103621.96;;;19.09;30.68
73003;BME280;61184;54.356;-8.550;2023-03-01T05:02:23;103620.37;;;19.01;30.73
73003;BME280;61184;54.356;-8.550;2023-03-01T05:04:49;103619.87;;;18.80;30.71
73003;BME280;61184;54.356;-8.550;2023-03-01T05:07:16;103619.93;;;18.74;30.83
73003;BME280;61184;54.356;-8.550;2023-03-01T05:09:40;103621.47;;;18.76;30.76
73003;BME280;61184;54.356;-8.550;2023-03-01T05:12:05;103620.53;;;19.07;30.66
73003;BME280;61184;54.356;-8.550;2023-03-01T05:14:31;103619.92;;;19.08;30.65
73003;BME280;61184;54.356;-8.550;2023-03-01T05:17:01;103617.73;;;18.98;30.80
73003;BME280;61184;54.356;-8.550;2023-03-01T05:19:21;103621.21;;;19.27;30.46
73003;BME280;61184;54.356;-8.550;2023-03-01T05:21:51;103618.84;;;18.94;30.84
73003;BME280;61184;54.356;-8.550;2023-03-01T05:24:12;103617.89;;;18.79;30.67
73003;BME280;61184;54.356;-8.550;2023-03-01T05:26:38;103617.67;;;18.85;30.61
73003;BME280;61184;54.356;-8.550;2023-03-01T05:29:03;103617.35;;;18.94;30.82
73003;BME280;61184;54.356;-8.550;2023-03-01T05:31:40;103616.20;;;18.67;30.88
73003;BME280;61184;54.356;-8.550;2023-03-01T05:33:55;103617.97;;;18.81;30.99
73003;BME280;61184;54.356;-8.550;2023-03-01T05:36:20;103611.85;;;18.97;30.77
73003;BME280;61184;54.356;-8.550;2023-03-01T05:38:48;103612.95;;;18.94;30.77
73003;BME280;61184;54.356;-8.550;2023-03-01T05:41:16;103612.79;;;18.87;30.90
73003;BME280;61184;54.356;-8.550;2023-03-01T05:43:36;103611.47;;;18.63;30.87
73003;BME280;61184;54.356;-8.550;2023-03-01T05:46:02;103615.16;;;18.80;30.95
73003;BME280;61184;54.356;-8.550;2023-03-01T05:48:28;103612.58;;;18.81;30.94
73003;BME280;61184;54.356;-8.550;2023-03-01T05:50:59;103613.96;;;18.80;30.93
73003;BME280;61184;54.356;-8.550;2023-03-01T05:53:20;103612.09;;;18.79;31.00
73003;BME280;61184;54.356;-8.550;2023-03-01T05:55:45;103613.73;;;18.81;30.92
73003;BME280;61184;54.356;-8.550;2023-03-01T05:58:12;103607.95;;;18.89;30.80
73003;BME280;61184;54.356;-8.550;2023-03-01T06:00:35;103607.50;;;18.98;30.66
73003;BME280;61184;54.356;-8.550;2023-03-01T06:03:01;103608.93;;;19.00;30.63
73003;BME280;61184;54.356;-8.550;2023-03-01T06:05:27;103606.52;;;18.91;30.77
73003;BME280;61184;54.356;-8.550;2023-03-01T06:07:53;103605.42;;;18.70;30.82
73003;BME280;61184;54.356;-8.550;2023-03-01T06:10:19;103606.75;;;18.84;30.82
73003;BME280;61184;54.356;-8.550;2023-03-01T06:12:43;103608.26;;;19.06;30.55
73003;BME280;61184;54.356;-8.550;2023-03-01T06:15:12;103606.91;;;18.92;30.73
73003;BME280;61184;54.356;-8.550;2023-03-01T06:17:37;103609.51;;;18.74;30.96
73003;BME280;61184;54.356;-8.550;2023-03-01T06:19:59;103608.95;;;18.81;30.87
73003;BME280;61184;54.356;-8.550;2023-03-01T06:22:28;103607.67;;;18.99;30.62
73003;BME280;61184;54.356;-8.550;2023-03-01T06:24:50;103611.32;;;18.78;30.89
73003;BME280;61184;54.356;-8.550;2023-03-01T06:27:16;103609.44;;;18.63;30.77
73003;BME280;61184;54.356;-8.550;2023-03-01T06:29:41;103615.00;;;18.79;30.88
73003;BME280;61184;54.356;-8.550;2023-03-01T06:32:07;103615.65;;;18.90;30.73
73003;BME280;61184;54.356;-8.550;2023-03-01T06:34:37;103618.03;;;18.78;30.89
73003;BME280;61184;54.356;-8.550;2023-03-01T06:37:00;103617.20;;;18.82;30.85
73003;BME280;61184;54.356;-8.550;2023-03-01T06:39:28;103615.11;;;18.72;30.97
73003;BME280;61184;54.356;-8.550;2023-03-01T06:41:49;103616.21;;;18.49;30.92
73003;BME280;61184;54.356;-8.550;2023-03-01T06:44:15;103611.03;;;18.93;30.67
73003;BME280;61184;54.356;-8.550;2023-03-01T06:46:40;103617.20;;;18.77;30.87
73003;BME280;61184;54.356;-8.550;2023-03-01T06:49:09;103616.05;;;18.76;30.86
73003;BME280;61184;54.356;-8.550;2023-03-01T06:51:31;103612.36;;;18.82;30.82
73003;BME280;61184;54.356;-8.550;2023-03-01T06:53:57;103617.81;;;18.55;30.85
73003;BME280;61184;54.356;-8.550;2023-03-01T06:56:22;103618.53;;;18.68;30.95
73003;BME280;61184;54.356;-8.550;2023-03-01T06:58:48;103618.08;;;18.74;30.91
73003;BME280;61184;54.356;-8.550;2023-03-01T07:01:14;103619.90;;;18.74;30.89
73003;BME280;61184;54.356;-8.550;2023-03-01T07:03:39;103617.52;;;18.64;30.82
73003;BME280;61184;54.356;-8.550;2023-03-01T07:06:05;103620.39;;;18.83;30.91
73003;BME280;61184;54.356;-8.550;2023-03-01T07:08:30;103621.32;;;18.80;31.02
73003;BME280;61184;54.356;-8.550;2023-03-01T07:10:56;103618.95;;;18.96;30.86
73003;BME280;61184;54.356;-8.550;2023-03-01T07:13:20;103624.34;;;18.85;31.14
73003;BME280;61184;54.356;-8.550;2023-03-01T07:15:48;103622.28;;;19.12;30.70
73003;BME280;61184;54.356;-8.550;2023-03-01T07:18:12;103624.89;;;18.87;31.21
73003;BME280;61184;54.356;-8.550;2023-03-01T07:20:40;103625.11;;;18.90;31.18
73003;BME280;61184;54.356;-8.550;2023-03-01T07:23:06;103622.45;;;19.07;30.94
73003;BME280;61184;54.356;-8.550;2023-03-01T07:25:38;103623.53;;;18.68;31.67
73003;BME280;61184;54.356;-8.550;2023-03-01T07:27:55;103620.45;;;18.69;31.63
73003;BME280;61184;54.356;-8.550;2023-03-01T07:30:20;103617.15;;;18.70;31.69
73003;BME280;61184;54.356;-8.550;2023-03-01T07:32:45;103619.96;;;18.36;32.08
73003;BME280;61184;54.356;-8.550;2023-03-01T07:35:11;103620.40;;;18.51;32.13
73003;BME280;61184;54.356;-8.550;2023-03-01T07:37:36;103618.64;;;18.47;32.12
73003;BME280;61184;54.356;-8.550;2023-03-01T07:40:02;103617.16;;;18.43;32.07
73003;BME280;61184;54.356;-8.550;2023-03-01T07:42:27;103622.04;;;18.68;31.95
73003;BME280;61184;54.356;-8.550;2023-03-01T07:44:54;103620.78;;;18.54;31.98
73003;BME280;61184;54.356;-8.550;2023-03-01T07:47:18;103625.23;;;18.64;31.87
73003;BME280;61184;54.356;-8.550;2023-03-01T07:49:44;103627.82;;;18.53;32.00
73003;BME280;61184;54.356;-8.550;2023-03-01T07:52:10;103628.97;;;18.49;32.02
73003;BME280;61184;54.356;-8.550;2023-03-01T07:54:34;103620.84;;;18.46;32.04
73003;BME280;61184;54.356;-8.550;2023-03-01T07:57:03;103621.39;;;18.53;31.95
73003;BME280;61184;54.356;-8.550;2023-03-01T07:59:26;103621.83;;;18.38;32.13
73003;BME280;61184;54.356;-8.550;2023-03-01T08:01:51;103620.29;;;18.41;32.10
73003;BME280;61184;54.356;-8.550;2023-03-01T08:04:17;103622.71;;;18.61;31.88
73003;BME280;61184;54.356;-8.550;2023-03-01T08:06:45;103623.86;;;18.54;31.88
73003;BME280;61184;54.356;-8.550;2023-03-01T08:09:07;103619.52;;;18.65;32.02
73003;BME280;61184;54.356;-8.550;2023-03-01T08:11:33;103618.31;;;18.55;31.84
73003;BME280;61184;54.356;-8.550;2023-03-01T08:13:58;103620.34;;;18.51;32.06
73003;BME280;61184;54.356;-8.550;2023-03-01T08:16:25;103620.12;;;18.41;32.01
73003;BME280;61184;54.356;-8.550;2023-03-01T08:18:51;103618.86;;;18.43;32.17
73003;BME280;61184;54.356;-8.550;2023-03-01T08:21:16;103614.63;;;18.39;32.15
73003;BME280;61184;54.356;-8.550;2023-03-01T08:23:41;103613.47;;;18.19;32.09
73003;BME280;61184;54.356;-8.550;2023-03-01T08:26:14;103614.74;;;18.32;32.20
73003;BME280;61184;54.356;-8.550;2023-03-01T08:28:32;103616.77;;;18.30;32.22
73003;BME280;61184;54.356;-8.550;2023-03-01T08:31:13;103612.76;;;18.07;32.15
73003;BME280;61184;54.356;-8.550;2023-03-01T08:33:22;103613.25;;;18.37;32.00
73003;BME280;61184;54.356;-8.550;2023-03-01T08:35:48;103611.99;;;18.30;32.05
73003;BME280;61184;54.356;-8.550;2023-03-01T08:38:17;103611.33;;;18.33;32.00
73003;BME280;61184;54.356;-8.550;2023-03-01T08:40:41;103612.59;;;18.34;31.96
73003;BME280;61184;54.356;-8.550;2023-03-01T08:43:04;103610.78;;;18.31;31.97
73003;BME280;61184;54.356;-8.550;2023-03-01T08:45:30;103611.38;;;18.33;31.95
73003;BME280;61184;54.356;-8.550;2023-03-01T08:47:56;103614.02;;;18.32;31.91
73003;BME280;61184;54.356;-8.550;2023-03-01T08:50:34;103617.04;;;18.27;31.95
73003;BME280;61184;54.356;-8.550;2023-03-01T08:52:47;103620.07;;;18.09;31.89
73003;BME280;61184;54.356;-8.550;2023-03-01T08:55:12;103619.96;;;18.30;31.90
73003;BME280;61184;54.356;-8.550;2023-03-01T08:57:44;103617.26;;;18.24;31.94
73003;BME280;61184;54.356;-8.550;2023-03-01T09:00:04;103615.40;;;18.30;31.91
73003;BME280;61184;54.356;-8.550;2023-03-01T09:02:29;103612.65;;;18.29;31.95
73003;BME280;61184;54.356;-8.550;2023-03-01T09:05:00;103611.22;;;18.27;31.96
73003;BME280;61184;54.356;-8.550;2023-03-01T09:07:19;103610.45;;;18.20;31.98
73003;BME280;61184;54.356;-8.550;2023-03-01T09:09:59;103609.51;;;18.26;31.93
73003;BME280;61184;54.356;-8.550;2023-03-01T09:12:11;103607.65;;;18.28;31.86
73003;BME280;61184;54.356;-8.550;2023-03-01T09:14:36;103602.70;;;18.28;31.80
73003;BME280;61184;54.356;-8.550;2023-03-01T09:17:02;103598.03;;;18.28;31.81
73003;BME280;61184;54.356;-8.550;2023-03-01T09:19:27;103598.25;;;18.23;31.83
73003;BME280;61184;54.356;-8.550;2023-03-01T09:21:53;103595.17;;;18.21;31.77
73003;BME280;61184;54.356;-8.550;2023-03-01T09:24:20;103599.01;;;18.13;31.86
73003;BME280;61184;54.356;-8.550;2023-03-01T09:27:01;103598.30;;;18.13;31.84
73003;BME280;61184;54.356;-8.550;2023-03-01T09:29:11;103594.73;;;18.32;31.86
73003;BME280;61184;54.356;-8.550;2023-03-01T09:31:35;103593.52;;;18.08;31.89
73003;BME280;61184;54.356;-8.550;2023-03-01T09:34:01;103595.00;;;18.19;31.73
73003;BME280;61184;54.356;-8.550;2023-03-01T09:36:26;103592.20;;;18.05;31.90
73003;BME280;61184;54.356;-8.550;2023-03-01T09:38:52;103591.10;;;18.15;31.76
73003;BME280;61184;54.356;-8.550;2023-03-01T09:41:31;103589.28;;;17.97;31.95
73003;BME280;61184;54.356;-8.550;2023-03-01T09:43:46;103591.15;;;17.78;31.90
73003;BME280;61184;54.356;-8.550;2023-03-01T09:46:14;103592.14;;;18.00;31.92
73003;BME280;61184;54.356;-8.550;2023-03-01T09:48:52;103591.87;;;18.06;31.83
73003;BME280;61184;54.356;-8.550;2023-03-01T09:51:03;103595.44;;;18.20;31.71
73003;BME280;61184;54.356;-8.550;2023-03-01T09:53:31;103597.64;;;18.15;31.74
73003;BME280;61184;54.356;-8.550;2023-03-01T09:55:55;103598.24;;;18.07;31.80
73003;BME280;61184;54.356;-8.550;2023-03-01T09:58:29;103598.35;;;18.14;31.76
73003;BME280;61184;54.356;-8.550;2023-03-01T10:00:52;103596.54;;;18.38;31.71
73003;BME280;61184;54.356;-8.550;2023-03-01T10:03:14;103591.05;;;18.17;31.76
73003;BME280;61184;54.356;-8.550;2023-03-01T10:05:40;103593.74;;;18.06;31.82
73003;BME280;61184;54.356;-8.550;2023-03-01T10:10:28;103586.26;;;18.04;31.85
73003;BME280;61184;54.356;-8.550;2023-03-01T10:12:49;103585.28;;;18.09;31.82
73003;BME280;61184;54.356;-8.550;2023-03-01T10:15:19;103581.54;;;18.01;31.88
73003;BME280;61184;54.356;-8.550;2023-03-01T10:17:46;103578.13;;;18.05;31.82
73003;BME280;61184;54.356;-8.550;2023-03-01T10:20:20;103577.03;;;18.09;31.76
73003;BME280;61184;54.356;-8.550;2023-03-01T10:22:32;103576.82;;;18.17;31.67
73003;BME280;61184;54.356;-8.550;2023-03-01T10:24:58;103576.21;;;18.05;31.78
73003;BME280;61184;54.356;-8.550;2023-03-01T10:27:25;103572.96;;;17.97;31.87
73003;BME280;61184;54.356;-8.550;2023-03-01T10:29:53;103569.39;;;18.00;31.86
73003;BME280;61184;54.356;-8.550;2023-03-01T10:32:14;103569.72;;;18.02;31.81
73003;BME280;61184;54.356;-8.550;2023-03-01T10:34:52;103567.91;;;18.38;31.65
73003;BME280;61184;54.356;-8.550;2023-03-01T10:37:12;103569.56;;;18.04;31.75
73003;BME280;61184;54.356;-8.550;2023-03-01T10:39:30;103565.16;;;17.96;31.86
73003;BME280;61184;54.356;-8.550;2023-03-01T10:42:04;103565.33;;;18.22;31.77
73003;BME280;61184;54.356;-8.550;2023-03-01T10:46:58;103564.51;;;18.12;31.61
73003;BME280;61184;54.356;-8.550;2023-03-01T10:49:16;103560.27;;;17.90;31.87
73003;BME280;61184;54.356;-8.550;2023-03-01T10:51:39;103563.68;;;17.99;31.76
73003;BME280;61184;54.356;-8.550;2023-03-01T10:54:19;103562.53;;;18.01;31.71
73003;BME280;61184;54.356;-8.550;2023-03-01T10:57:02;103558.19;;;17.98;31.77
73003;BME280;61184;54.356;-8.550;2023-03-01T10:59:02;103555.44;;;17.96;31.73
73003;BME280;61184;54.356;-8.550;2023-03-01T11:04:10;103556.05;;;18.14;31.55
73003;BME280;61184;54.356;-8.550;2023-03-01T11:06:20;103554.78;;;17.97;31.66
73003;BME280;61184;54.356;-8.550;2023-03-01T11:08:39;103556.05;;;18.05;31.58
73003;BME280;61184;54.356;-8.550;2023-03-01T11:11:14;103555.71;;;18.01;31.60
73003;BME280;61184;54.356;-8.550;2023-03-01T11:13:27;103555.66;;;18.14;31.48
73003;BME280;61184;54.356;-8.550;2023-03-01T11:16:04;103553.19;;;17.99;31.67
73003;BME280;61184;54.356;-8.550;2023-03-01T11:18:21;103554.01;;;18.04;31.59
73003;BME280;61184;54.356;-8.550;2023-03-01T11:20:49;103551.65;;;18.00;31.61
73003;BME280;61184;54.356;-8.550;2023-03-01T11:23:12;103555.60;;;18.30;31.23
73003;BME280;61184;54.356;-8.550;2023-03-01T11:25:39;103550.11;;;17.85;31.74
73003;BME280;61184;54.356;-8.550;2023-03-01T11:28:04;103547.86;;;17.95;31.64
73003;BME280;61184;54.356;-8.550;2023-03-01T11:30:39;103546.65;;;17.93;31.64
73003;BME280;61184;54.356;-8.550;2023-03-01T11:33:03;103544.01;;;17.96;31.61
73003;BME280;61184;54.356;-8.550;2023-03-01T11:35:20;103541.87;;;17.96;31.61
73003;BME280;61184;54.356;-8.550;2023-03-01T11:37:49;103542.42;;;18.24;31.51
73003;BME280;61184;54.356;-8.550;2023-03-01T11:40:16;103537.91;;;17.99;31.53
73003;BME280;61184;54.356;-8.550;2023-03-01T11:42:48;103535.72;;;18.26;31.44
73003;BME280;61184;54.356;-8.550;2023-03-01T11:45:03;103532.53;;;17.96;31.49
73003;BME280;61184;54.356;-8.550;2023-03-01T11:47:40;103535.99;;;18.01;31.43
73003;BME280;61184;54.356;-8.550;2023-03-01T11:50:01;103534.40;;;18.07;31.34
73003;BME280;61184;54.356;-8.550;2023-03-01T11:52:24;103527.69;;;18.11;31.26
73003;BME280;61184;54.356;-8.550;2023-03-01T11:54:53;103523.68;;;18.13;31.25
73003;BME280;61184;54.356;-8.550;2023-03-01T11:57:13;103527.09;;;18.06;31.58
73003;BME280;61184;54.356;-8.550;2023-03-01T11:59:51;103529.29;;;17.88;31.53
73003;BME280;61184;54.356;-8.550;2023-03-01T12:04:40;103516.86;;;18.48;31.07
73003;BME280;61184;54.356;-8.550;2023-03-01T12:06:57;103512.52;;;18.23;31.00
73003;BME280;61184;54.356;-8.550;2023-03-01T12:09:38;103517.42;;;18.36;31.09
73003;BME280;61184;54.356;-8.550;2023-03-01T12:11:55;103514.18;;;17.96;31.22
73003;BME280;61184;54.356;-8.550;2023-03-01T12:16:46;103507.09;;;18.34;31.00
73003;BME280;61184;54.356;-8.550;2023-03-01T12:19:13;103502.86;;;18.47;31.10
73003;BME280;61184;54.356;-8.550;2023-03-01T12:21:31;103502.59;;;17.86;31.25
73003;BME280;61184;54.356;-8.550;2023-03-01T12:26:29;103487.32;;;18.20;31.09
73003;BME280;61184;54.356;-8.550;2023-03-01T12:33:38;103484.46;;;17.95;30.98
73003;BME280;61184;54.356;-8.550;2023-03-01T12:38:33;103487.20;;;18.40;30.73
73003;BME280;61184;54.356;-8.550;2023-03-01T12:40:58;103483.36;;;18.02;30.82
73003;BME280;61184;54.356;-8.550;2023-03-01T12:45:53;103480.46;;;17.82;31.06
73003;BME280;61184;54.356;-8.550;2023-03-01T12:48:13;103477.27;;;17.83;31.03
73003;BME280;61184;54.356;-8.550;2023-03-01T12:50:36;103474.08;;;18.10;30.98
73003;BME280;61184;54.356;-8.550;2023-03-01T12:52:56;103471.39;;;17.86;30.92
73003;BME280;61184;54.356;-8.550;2023-03-01T12:55:27;103468.19;;;18.29;30.68